sensor_id;sensor_type;location;lat;lon;timestamp;temperature;humidity
5802;DHT22;2927;49.366;8.530;2023-11-21T00:01:02;8.90;99.90
5802;DHT22;2927;49.366;8.530;2023-11-21T00:03:30;8.90;99.90
5802;DHT22;2927;49.366;8.530;2023-11-21T00:05:55;8.90;99.90
5802;DHT22;2927;49.366;8.530;2023-11-21T00:08:21;8.90;99.90
5802;DHT22;2927;49.366;8.530;2023-11-21T00:10:47;8.90;99.90
5802;DHT22;2927;49.366;8.530;2023-11-21T00:13:13;8.90;99.90
5802;DHT22;2927;49.366;8.530;2023-11-21T00:15:39;8.90;99.90
5802;DHT22;2927;49.366;8.530;2023-11-21T00:18:06;8.90;99.90
5802;DHT22;2927;49.366;8.530;2023-11-21T00:20:31;8.90;99.90
5802;DHT22;2927;49.366;8.530;2023-11-21T00:22:57;8.90;99.90
5802;DHT22;2927;49.366;8.530;2023-11-21T00:25:22;8.90;99.90
5802;DHT22;2927;49.366;8.530;2023-11-21T00:27:48;8.90;99.90
5802;DHT22;2927;49.366;8.530;2023-11-21T00:30:15;8.90;99.90
5802;DHT22;2927;49.366;8.530;2023-11-21T00:32:41;8.90;99.90
5802;DHT22;2927;49.366;8.530;2023-11-21T00:35:07;8.90;99.90
5802;DHT22;2927;49.366;8.530;2023-11-21T00:37:33;8.90;99.90
5802;DHT22;2927;49.366;8.530;2023-11-21T00:39:58;8.80;99.90
5802;DHT22;2927;49.366;8.530;2023-11-21T00:42:24;8.80;99.90
5802;DHT22;2927;49.366;8.530;2023-11-21T00:44:49;8.80;99.90
5802;DHT22;2927;49.366;8.530;2023-11-21T00:47:15;8.80;99.90
5802;DHT22;2927;49.366;8.530;2023-11-21T00:49:41;8.90;99.90
5802;DHT22;2927;49.366;8.530;2023-11-21T00:52:06;8.80;99.90
5802;DHT22;2927;49.366;8.530;2023-11-21T00:54:32;8.80;99.90
5802;DHT22;2927;49.366;8.530;2023-11-21T00:56:58;8.80;99.90
5802;DHT22;2927;49.366;8.530;2023-11-21T00:59:24;8.80;99.90
5802;DHT22;2927;49.366;8.530;2023-11-21T01:01:50;8.80;99.90
5802;DHT22;2927;49.366;8.530;2023-11-21T01:04:15;8.80;99.90
5802;DHT22;2927;49.366;8.530;2023-11-21T01:06:41;8.80;99.90
5802;DHT22;2927;49.366;8.530;2023-11-21T01:09:06;8.90;99.90
5802;DHT22;2927;49.366;8.530;2023-11-21T01:11:34;8.90;99.90
5802;DHT22;2927;49.366;8.530;2023-11-21T01:14:03;8.90;99.90
5802;DHT22;2927;49.366;8.530;2023-11-21T01:16:29;8.90;99.90
5802;DHT22;2927;49.366;8.530;2023-11-21T01:18:54;8.90;99.90
5802;DHT22;2927;49.366;8.530;2023-11-21T01:21:20;8.90;99.90
5802;DHT22;2927;49.366;8.530;2023-11-21T01:23:45;9.00;99.90
5802;DHT22;2927;49.366;8.530;2023-11-21T01:26:12;8.90;99.90
5802;DHT22;2927;49.366;8.530;2023-11-21T01:28:38;8.90;99.90
5802;DHT22;2927;49.366;8.530;2023-11-21T01:31:04;8.90;99.90
5802;DHT22;2927;49.366;8.530;2023-11-21T01:33:29;8.90;99.90
5802;DHT22;2927;49.366;8.530;2023-11-21T01:35:55;8.90;99.90
5802;DHT22;2927;49.366;8.530;2023-11-21T01:38:21;8.90;99.90
5802;DHT22;2927;49.366;8.530;2023-11-21T01:40:47;8.90;99.90
5802;DHT22;2927;49.366;8.530;2023-11-21T01:43:13;8.90;99.90
5802;DHT22;2927;49.366;8.530;2023-11-21T01:45:38;8.90;99.90
5802;DHT22;2927;49.366;8.530;2023-11-21T01:48:04;8.90;99.90
5802;DHT22;2927;49.366;8.530;2023-11-21T01:50:32;8.90;99.90
5802;DHT22;2927;49.366;8.530;2023-11-21T01:52:59;9.00;99.90
5802;DHT22;2927;49.366;8.530;2023-11-21T01:55:26;9.00;99.90
5802;DHT22;2927;49.366;8.530;2023-11-21T01:57:52;8.90;99.90
5802;DHT22;2927;49.366;8.530;2023-11-21T02:00:18;9.00;99.90
5802;DHT22;2927;49.366;8.530;2023-11-21T02:02:45;9.00;99.90
5802;DHT22;2927;49.366;8.530;2023-11-21T02:05:11;9.00;99.90
5802;DHT22;2927;49.366;8.530;2023-11-21T02:07:41;9.00;99.90
5802;DHT22;2927;49.366;8.530;2023-11-21T02:10:08;9.00;99.90
5802;DHT22;2927;49.366;8.530;2023-11-21T02:12:35;9.00;99.90
5802;DHT22;2927;49.366;8.530;2023-11-21T02:15:03;9.00;99.90
5802;DHT22;2927;49.366;8.530;2023-11-21T02:17:30;9.00;99.90
5802;DHT22;2927;49.366;8.530;2023-11-21T02:19:57;8.90;99.90
5802;DHT22;2927;49.366;8.530;2023-11-21T02:22:26;9.00;99.90
5802;DHT22;2927;49.366;8.530;2023-11-21T02:24:52;8.90;99.90
5802;DHT22;2927;49.366;8.530;2023-11-21T02:27:18;8.90;99.90
5802;DHT22;2927;49.366;8.530;2023-11-21T02:29:47;9.00;99.90
5802;DHT22;2927;49.366;8.530;2023-11-21T02:32:13;9.00;99.90
5802;DHT22;2927;49.366;8.530;2023-11-21T02:34:38;9.00;99.90
5802;DHT22;2927;49.366;8.530;2023-11-21T02:37:04;9.00;99.90
5802;DHT22;2927;49.366;8.530;2023-11-21T02:39:31;9.00;99.90
5802;DHT22;2927;49.366;8.530;2023-11-21T02:41:57;8.90;99.90
5802;DHT22;2927;49.366;8.530;2023-11-21T02:44:22;9.00;99.90
5802;DHT22;2927;49.366;8.530;2023-11-21T02:46:48;8.90;99.90
5802;DHT22;2927;49.366;8.530;2023-11-21T02:49:13;8.90;99.90
5802;DHT22;2927;49.366;8.530;2023-11-21T02:51:39;8.90;99.90
5802;DHT22;2927;49.366;8.530;2023-11-21T02:54:05;8.90;99.90
5802;DHT22;2927;49.366;8.530;2023-11-21T02:56:33;8.90;99.90
5802;DHT22;2927;49.366;8.530;2023-11-21T02:59:00;9.00;99.90
5802;DHT22;2927;49.366;8.530;2023-11-21T03:01:26;8.90;99.90
5802;DHT22;2927;49.366;8.530;2023-11-21T03:03:52;8.90;99.90
5802;DHT22;2927;49.366;8.530;2023-11-21T03:06:19;8.90;99.90
5802;DHT22;2927;49.366;8.530;2023-11-21T03:08:45;8.90;99.90
5802;DHT22;2927;49.366;8.530;2023-11-21T03:11:11;8.90;99.90
5802;DHT22;2927;49.366;8.530;2023-11-21T03:13:38;8.90;99.90
5802;DHT22;2927;49.366;8.530;2023-11-21T03:16:05;8.90;99.90
5802;DHT22;2927;49.366;8.530;2023-11-21T03:18:31;8.90;99.90
5802;DHT22;2927;49.366;8.530;2023-11-21T03:20:57;8.90;99.90
5802;DHT22;2927;49.366;8.530;2023-11-21T03:23:23;8.90;99.90
5802;DHT22;2927;49.366;8.530;2023-11-21T03:25:48;8.90;99.90
5802;DHT22;2927;49.366;8.530;2023-11-21T03:28:14;8.90;99.90
5802;DHT22;2927;49.366;8.530;2023-11-21T03:30:39;8.90;99.90
5802;DHT22;2927;49.366;8.530;2023-11-21T03:33:05;8.90;99.90
5802;DHT22;2927;49.366;8.530;2023-11-21T03:35:30;8.90;99.90
5802;DHT22;2927;49.366;8.530;2023-11-21T03:37:56;8.90;99.90
5802;DHT22;2927;49.366;8.530;2023-11-21T03:40:22;8.90;99.90
5802;DHT22;2927;49.366;8.530;2023-11-21T03:42:47;8.90;99.90
5802;DHT22;2927;49.366;8.530;2023-11-21T03:45:13;8.90;99.90
5802;DHT22;2927;49.366;8.530;2023-11-21T03:47:43;8.90;99.90
5802;DHT22;2927;49.366;8.530;2023-11-21T03:50:09;8.90;99.90
5802;DHT22;2927;49.366;8.530;2023-11-21T03:52:35;8.90;99.90
5802;DHT22;2927;49.366;8.530;2023-11-21T03:55:01;8.90;99.90
5802;DHT22;2927;49.366;8.530;2023-11-21T03:57:27;8.90;99.90
5802;DHT22;2927;49.366;8.530;2023-11-21T03:59:53;8.90;99.90
5802;DHT22;2927;49.366;8.530;2023-11-21T04:02:19;8.90;99.90
5802;DHT22;2927;49.366;8.530;2023-11-21T04:04:44;8.90;99.90
5802;DHT22;2927;49.366;8.530;2023-11-21T04:07:11;8.90;99.90
5802;DHT22;2927;49.366;8.530;2023-11-21T04:09:39;8.90;99.90
5802;DHT22;2927;49.366;8.530;2023-11-21T04:12:05;8.90;99.90
5802;DHT22;2927;49.366;8.530;2023-11-21T04:14:30;8.90;99.90
5802;DHT22;2927;49.366;8.530;2023-11-21T04:16:57;8.90;99.90
5802;DHT22;2927;49.366;8.530;2023-11-21T04:19:22;8.90;99.90
5802;DHT22;2927;49.366;8.530;2023-11-21T04:21:48;8.90;99.90
5802;DHT22;2927;49.366;8.530;2023-11-21T04:24:13;8.90;99.90
5802;DHT22;2927;49.366;8.530;2023-11-21T04:26:39;8.90;99.90
5802;DHT22;2927;49.366;8.530;2023-11-21T04:29:04;8.90;99.90
5802;DHT22;2927;49.366;8.530;2023-11-21T04:31:31;8.90;99.90
5802;DHT22;2927;49.366;8.530;2023-11-21T04:33:57;8.90;99.90
5802;DHT22;2927;49.366;8.530;2023-11-21T04:36:23;8.90;99.90
5802;DHT22;2927;49.366;8.530;2023-11-21T04:38:48;8.90;99.90
5802;DHT22;2927;49.366;8.530;2023-11-21T04:41:14;8.90;99.90
5802;DHT22;2927;49.366;8.530;2023-11-21T04:43:39;8.90;99.90
5802;DHT22;2927;49.366;8.530;2023-11-21T04:46:05;8.90;99.90
5802;DHT22;2927;49.366;8.530;2023-11-21T04:48:32;8.90;99.90
5802;DHT22;2927;49.366;8.530;2023-11-21T04:50:58;8.90;99.90
5802;DHT22;2927;49.366;8.530;2023-11-21T04:53:23;8.90;99.90
5802;DHT22;2927;49.366;8.530;2023-11-21T04:55:49;8.90;99.90
5802;DHT22;2927;49.366;8.530;2023-11-21T04:58:14;8.90;99.90
5802;DHT22;2927;49.366;8.530;2023-11-21T05:00:40;8.90;99.90
5802;DHT22;2927;49.366;8.530;2023-11-21T05:03:06;8.90;99.90
5802;DHT22;2927;49.366;8.530;2023-11-21T05:05:32;8.80;99.90
5802;DHT22;2927;49.366;8.530;2023-11-21T05:07:59;8.90;99.90
5802;DHT22;2927;49.366;8.530;2023-11-21T05:10:25;8.90;99.90
5802;DHT22;2927;49.366;8.530;2023-11-21T05:12:50;8.90;99.90
5802;DHT22;2927;49.366;8.530;2023-11-21T05:15:16;8.90;99.90
5802;DHT22;2927;49.366;8.530;2023-11-21T05:17:45;8.90;99.90
5802;DHT22;2927;49.366;8.530;2023-11-21T05:20:11;8.90;99.90
5802;DHT22;2927;49.366;8.530;2023-11-21T05:22:38;8.90;99.90
5802;DHT22;2927;49.366;8.530;2023-11-21T05:25:07;8.90;99.90
5802;DHT22;2927;49.366;8.530;2023-11-21T05:27:34;8.90;99.90
5802;DHT22;2927;49.366;8.530;2023-11-21T05:30:01;8.90;99.90
5802;DHT22;2927;49.366;8.530;2023-11-21T05:32:27;8.90;99.90
5802;DHT22;2927;49.366;8.530;2023-11-21T05:34:53;8.90;99.90
5802;DHT22;2927;49.366;8.530;2023-11-21T05:37:18;8.90;99.90
5802;DHT22;2927;49.366;8.530;2023-11-21T05:39:44;8.90;99.90
5802;DHT22;2927;49.366;8.530;2023-11-21T05:42:10;8.90;99.90
5802;DHT22;2927;49.366;8.530;2023-11-21T05:44:41;8.90;99.90
5802;DHT22;2927;49.366;8.530;2023-11-21T05:47:06;8.90;99.90
5802;DHT22;2927;49.366;8.530;2023-11-21T05:49:32;8.90;99.90
5802;DHT22;2927;49.366;8.530;2023-11-21T05:51:59;8.90;99.90
5802;DHT22;2927;49.366;8.530;2023-11-21T05:54:25;8.90;99.90
5802;DHT22;2927;49.366;8.530;2023-11-21T05:56:51;8.90;99.90
5802;DHT22;2927;49.366;8.530;2023-11-21T05:59:17;8.90;99.90
5802;DHT22;2927;49.366;8.530;2023-11-21T06:01:42;8.90;99.90
5802;DHT22;2927;49.366;8.530;2023-11-21T06:04:08;8.90;99.90
5802;DHT22;2927;49.366;8.530;2023-11-21T06:06:35;8.90;99.90
5802;DHT22;2927;49.366;8.530;2023-11-21T06:09:00;8.90;99.90
5802;DHT22;2927;49.366;8.530;2023-11-21T06:11:26;8.90;99.90
5802;DHT22;2927;49.366;8.530;2023-11-21T06:13:51;8.90;99.90
5802;DHT22;2927;49.366;8.530;2023-11-21T06:16:18;8.90;99.90
5802;DHT22;2927;49.366;8.530;2023-11-21T06:18:45;8.90;99.90
5802;DHT22;2927;49.366;8.530;2023-11-21T06:21:11;8.90;99.90
5802;DHT22;2927;49.366;8.530;2023-11-21T06:23:36;8.90;99.90
5802;DHT22;2927;49.366;8.530;2023-11-21T06:26:02;8.90;99.90
5802;DHT22;2927;49.366;8.530;2023-11-21T06:28:29;8.90;99.90
5802;DHT22;2927;49.366;8.530;2023-11-21T06:30:55;8.90;99.90
5802;DHT22;2927;49.366;8.530;2023-11-21T06:33:21;8.90;99.90
5802;DHT22;2927;49.366;8.530;2023-11-21T06:35:47;8.90;99.90
5802;DHT22;2927;49.366;8.530;2023-11-21T06:38:12;8.90;99.90
5802;DHT22;2927;49.366;8.530;2023-11-21T06:40:38;9.00;99.90
5802;DHT22;2927;49.366;8.530;2023-11-21T06:43:04;9.00;99.90
5802;DHT22;2927;49.366;8.530;2023-11-21T06:45:32;9.00;99.90
5802;DHT22;2927;49.366;8.530;2023-11-21T06:47:59;9.00;99.90
5802;DHT22;2927;49.366;8.530;2023-11-21T06:50:25;9.00;99.90
5802;DHT22;2927;49.366;8.530;2023-11-21T06:52:51;9.00;99.90
5802;DHT22;2927;49.366;8.530;2023-11-21T06:55:16;9.00;99.90
5802;DHT22;2927;49.366;8.530;2023-11-21T06:57:42;9.10;99.90
5802;DHT22;2927;49.366;8.530;2023-11-21T07:00:08;9.00;99.90
5802;DHT22;2927;49.366;8.530;2023-11-21T07:02:34;9.00;99.90
5802;DHT22;2927;49.366;8.530;2023-11-21T07:05:00;9.00;99.90
5802;DHT22;2927;49.366;8.530;2023-11-21T07:07:27;9.00;99.90
5802;DHT22;2927;49.366;8.530;2023-11-21T07:09:53;9.00;99.90
5802;DHT22;2927;49.366;8.530;2023-11-21T07:12:18;9.00;99.90
5802;DHT22;2927;49.366;8.530;2023-11-21T07:14:44;9.00;99.90
5802;DHT22;2927;49.366;8.530;2023-11-21T07:17:11;9.00;99.90
5802;DHT22;2927;49.366;8.530;2023-11-21T07:19:37;9.10;99.90
5802;DHT22;2927;49.366;8.530;2023-11-21T07:22:03;9.10;99.90
5802;DHT22;2927;49.366;8.530;2023-11-21T07:24:31;9.10;99.90
5802;DHT22;2927;49.366;8.530;2023-11-21T07:26:57;9.10;99.90
5802;DHT22;2927;49.366;8.530;2023-11-21T07:29:24;9.10;99.90
5802;DHT22;2927;49.366;8.530;2023-11-21T07:31:52;9.10;99.90
5802;DHT22;2927;49.366;8.530;2023-11-21T07:34:19;9.10;99.90
5802;DHT22;2927;49.366;8.530;2023-11-21T07:36:45;9.20;99.90
5802;DHT22;2927;49.366;8.530;2023-11-21T07:39:10;9.20;99.90
5802;DHT22;2927;49.366;8.530;2023-11-21T07:41:36;9.20;99.90
5802;DHT22;2927;49.366;8.530;2023-11-21T07:44:03;9.20;99.90
5802;DHT22;2927;49.366;8.530;2023-11-21T07:46:29;9.20;99.90
5802;DHT22;2927;49.366;8.530;2023-11-21T07:48:54;9.20;99.90
5802;DHT22;2927;49.366;8.530;2023-11-21T07:51:20;9.20;99.90
5802;DHT22;2927;49.366;8.530;2023-11-21T07:53:46;9.30;99.90
5802;DHT22;2927;49.366;8.530;2023-11-21T07:56:11;9.30;99.90
5802;DHT22;2927;49.366;8.530;2023-11-21T07:58:38;9.30;99.90
5802;DHT22;2927;49.366;8.530;2023-11-21T08:01:04;9.30;99.90
5802;DHT22;2927;49.366;8.530;2023-11-21T08:03:30;9.30;99.90
5802;DHT22;2927;49.366;8.530;2023-11-21T08:05:57;9.30;99.90
5802;DHT22;2927;49.366;8.530;2023-11-21T08:08:23;9.30;99.90
5802;DHT22;2927;49.366;8.530;2023-11-21T08:10:49;9.30;99.90
5802;DHT22;2927;49.366;8.530;2023-11-21T08:13:25;9.30;99.90
5802;DHT22;2927;49.366;8.530;2023-11-21T08:15:53;9.30;99.90
5802;DHT22;2927;49.366;8.530;2023-11-21T08:18:19;9.30;99.90
5802;DHT22;2927;49.366;8.530;2023-11-21T08:20:45;9.40;99.90
5802;DHT22;2927;49.366;8.530;2023-11-21T08:23:16;9.30;99.90
5802;DHT22;2927;49.366;8.530;2023-11-21T08:25:45;9.40;99.90
5802;DHT22;2927;49.366;8.530;2023-11-21T08:28:11;9.40;99.90
5802;DHT22;2927;49.366;8.530;2023-11-21T08:30:37;9.50;99.90
5802;DHT22;2927;49.366;8.530;2023-11-21T08:33:02;9.50;99.90
5802;DHT22;2927;49.366;8.530;2023-11-21T08:35:29;9.50;99.90
5802;DHT22;2927;49.366;8.530;2023-11-21T08:37:55;9.50;99.90
5802;DHT22;2927;49.366;8.530;2023-11-21T08:40:21;9.50;99.90
5802;DHT22;2927;49.366;8.530;2023-11-21T08:42:47;9.50;99.90
5802;DHT22;2927;49.366;8.530;2023-11-21T08:45:16;9.60;99.90
5802;DHT22;2927;49.366;8.530;2023-11-21T08:47:42;9.60;99.90
5802;DHT22;2927;49.366;8.530;2023-11-21T08:50:09;9.70;99.90
5802;DHT22;2927;49.366;8.530;2023-11-21T08:52:35;9.70;99.90
5802;DHT22;2927;49.366;8.530;2023-11-21T08:55:02;9.70;99.90
5802;DHT22;2927;49.366;8.530;2023-11-21T08:57:36;9.80;99.90
5802;DHT22;2927;49.366;8.530;2023-11-21T09:00:03;9.80;99.90
5802;DHT22;2927;49.366;8.530;2023-11-21T09:02:30;9.90;99.90
5802;DHT22;2927;49.366;8.530;2023-11-21T09:04:59;9.90;99.90
5802;DHT22;2927;49.366;8.530;2023-11-21T09:07:24;9.90;99.90
5802;DHT22;2927;49.366;8.530;2023-11-21T09:09:51;9.90;99.90
5802;DHT22;2927;49.366;8.530;2023-11-21T09:12:16;9.90;99.90
5802;DHT22;2927;49.366;8.530;2023-11-21T09:14:43;9.90;99.90
5802;DHT22;2927;49.366;8.530;2023-11-21T09:17:10;10.00;99.90
5802;DHT22;2927;49.366;8.530;2023-11-21T09:19:40;10.00;99.90
5802;DHT22;2927;49.366;8.530;2023-11-21T09:22:06;10.00;99.90
5802;DHT22;2927;49.366;8.530;2023-11-21T09:24:32;10.00;99.90
5802;DHT22;2927;49.366;8.530;2023-11-21T09:26:58;10.10;99.90
5802;DHT22;2927;49.366;8.530;2023-11-21T09:29:23;10.20;99.90
5802;DHT22;2927;49.366;8.530;2023-11-21T09:31:49;10.20;99.90
5802;DHT22;2927;49.366;8.530;2023-11-21T09:34:17;10.20;99.90
5802;DHT22;2927;49.366;8.530;2023-11-21T09:36:45;10.20;99.90
5802;DHT22;2927;49.366;8.530;2023-11-21T09:39:11;10.20;99.90
5802;DHT22;2927;49.366;8.530;2023-11-21T09:41:54;10.20;99.90
5802;DHT22;2927;49.366;8.530;2023-11-21T09:44:36;10.20;99.90
5802;DHT22;2927;49.366;8.530;2023-11-21T09:47:10;10.10;99.90
5802;DHT22;2927;49.366;8.530;2023-11-21T09:49:39;10.10;99.90
5802;DHT22;2927;49.366;8.530;2023-11-21T09:52:09;10.00;99.90
5802;DHT22;2927;49.366;8.530;2023-11-21T09:54:37;10.00;99.90
5802;DHT22;2927;49.366;8.530;2023-11-21T09:57:04;10.10;99.90
5802;DHT22;2927;49.366;8.530;2023-11-21T09:59:31;10.20;99.90
5802;DHT22;2927;49.366;8.530;2023-11-21T10:01:58;10.30;99.90
5802;DHT22;2927;49.366;8.530;2023-11-21T10:04:24;10.40;99.90
5802;DHT22;2927;49.366;8.530;2023-11-21T10:06:50;10.40;99.90
5802;DHT22;2927;49.366;8.530;2023-11-21T10:09:18;10.40;99.90
5802;DHT22;2927;49.366;8.530;2023-11-21T10:11:47;10.40;99.90
5802;DHT22;2927;49.366;8.530;2023-11-21T10:14:12;10.30;99.90
5802;DHT22;2927;49.366;8.530;2023-11-21T10:16:40;10.30;99.90
5802;DHT22;2927;49.366;8.530;2023-11-21T10:19:10;10.30;99.90
5802;DHT22;2927;49.366;8.530;2023-11-21T10:21:37;10.30;99.90
5802;DHT22;2927;49.366;8.530;2023-11-21T10:24:04;10.40;99.90
5802;DHT22;2927;49.366;8.530;2023-11-21T10:26:30;10.20;99.90
5802;DHT22;2927;49.366;8.530;2023-11-21T10:29:02;10.20;99.90
5802;DHT22;2927;49.366;8.530;2023-11-21T10:31:30;10.20;99.90
5802;DHT22;2927;49.366;8.530;2023-11-21T10:34:15;10.20;99.90
5802;DHT22;2927;49.366;8.530;2023-11-21T10:36:41;10.30;99.90
5802;DHT22;2927;49.366;8.530;2023-11-21T10:39:06;10.30;99.90
5802;DHT22;2927;49.366;8.530;2023-11-21T10:41:32;10.40;99.90
5802;DHT22;2927;49.366;8.530;2023-11-21T10:43:58;10.30;99.90
5802;DHT22;2927;49.366;8.530;2023-11-21T10:46:24;10.30;99.90
5802;DHT22;2927;49.366;8.530;2023-11-21T10:48:54;10.30;99.90
5802;DHT22;2927;49.366;8.530;2023-11-21T10:51:21;10.30;99.90
5802;DHT22;2927;49.366;8.530;2023-11-21T10:53:47;10.20;99.90
5802;DHT22;2927;49.366;8.530;2023-11-21T10:56:14;10.10;99.90
5802;DHT22;2927;49.366;8.530;2023-11-21T10:58:45;10.10;99.90
5802;DHT22;2927;49.366;8.530;2023-11-21T11:01:11;10.10;99.90
5802;DHT22;2927;49.366;8.530;2023-11-21T11:03:39;10.10;99.90
5802;DHT22;2927;49.366;8.530;2023-11-21T11:06:07;10.00;99.90
5802;DHT22;2927;49.366;8.530;2023-11-21T11:08:37;10.20;99.90
5802;DHT22;2927;49.366;8.530;2023-11-21T11:11:07;10.20;99.90
5802;DHT22;2927;49.366;8.530;2023-11-21T11:13:33;10.30;99.90
5802;DHT22;2927;49.366;8.530;2023-11-21T11:16:00;10.40;99.90
5802;DHT22;2927;49.366;8.530;2023-11-21T11:18:30;10.40;99.90
5802;DHT22;2927;49.366;8.530;2023-11-21T11:21:20;10.50;99.90
5802;DHT22;2927;49.366;8.530;2023-11-21T11:24:18;10.60;99.90
5802;DHT22;2927;49.366;8.530;2023-11-21T11:30:00;10.50;99.90
5802;DHT22;2927;49.366;8.530;2023-11-21T11:35:38;10.40;99.90
5802;DHT22;2927;49.366;8.530;2023-11-21T11:38:07;10.50;99.90
5802;DHT22;2927;49.366;8.530;2023-11-21T11:41:01;10.50;99.90
5802;DHT22;2927;49.366;8.530;2023-11-21T11:43:28;10.60;99.90
5802;DHT22;2927;49.366;8.530;2023-11-21T11:45:57;10.60;99.90
5802;DHT22;2927;49.366;8.530;2023-11-21T11:48:29;10.60;99.90
5802;DHT22;2927;49.366;8.530;2023-11-21T11:51:11;10.70;99.90
5802;DHT22;2927;49.366;8.530;2023-11-21T11:53:43;10.70;99.90
5802;DHT22;2927;49.366;8.530;2023-11-21T11:56:29;10.70;99.90
5802;DHT22;2927;49.366;8.530;2023-11-21T11:58:58;10.70;99.90
5802;DHT22;2927;49.366;8.530;2023-11-21T12:01:26;10.70;99.90
5802;DHT22;2927;49.366;8.530;2023-11-21T12:06:36;10.90;99.90
5802;DHT22;2927;49.366;8.530;2023-11-21T12:09:02;10.90;99.90
5802;DHT22;2927;49.366;8.530;2023-11-21T12:11:31;11.00;99.90
5802;DHT22;2927;49.366;8.530;2023-11-21T12:13:58;11.10;99.90
5802;DHT22;2927;49.366;8.530;2023-11-21T12:16:25;11.40;99.90
5802;DHT22;2927;49.366;8.530;2023-11-21T12:18:53;11.50;99.90
5802;DHT22;2927;49.366;8.530;2023-11-21T12:21:20;11.40;99.90
5802;DHT22;2927;49.366;8.530;2023-11-21T12:23:45;11.20;99.90
5802;DHT22;2927;49.366;8.530;2023-11-21T12:26:13;11.20;99.90
5802;DHT22;2927;49.366;8.530;2023-11-21T12:28:38;11.20;99.90
5802;DHT22;2927;49.366;8.530;2023-11-21T12:31:04;11.10;99.90
5802;DHT22;2927;49.366;8.530;2023-11-21T12:33:35;11.00;99.90
5802;DHT22;2927;49.366;8.530;2023-11-21T12:36:00;11.10;99.90
5802;DHT22;2927;49.366;8.530;2023-11-21T12:38:34;10.90;99.90
5802;DHT22;2927;49.366;8.530;2023-11-21T12:41:00;10.90;99.90
5802;DHT22;2927;49.366;8.530;2023-11-21T12:43:26;10.80;99.90
5802;DHT22;2927;49.366;8.530;2023-11-21T12:46:07;10.70;99.90
5802;DHT22;2927;49.366;8.530;2023-11-21T12:48:37;10.70;99.90
5802;DHT22;2927;49.366;8.530;2023-11-21T12:51:02;10.80;99.90
5802;DHT22;2927;49.366;8.530;2023-11-21T12:53:28;11.10;99.90
5802;DHT22;2927;49.366;8.530;2023-11-21T12:56:02;11.20;99.90
5802;DHT22;2927;49.366;8.530;2023-11-21T12:58:28;11.30;99.90
5802;DHT22;2927;49.366;8.530;2023-11-21T13:00:57;11.40;99.90
5802;DHT22;2927;49.366;8.530;2023-11-21T13:03:25;11.40;99.90
5802;DHT22;2927;49.366;8.530;2023-11-21T13:05:51;11.30;99.90
5802;DHT22;2927;49.366;8.530;2023-11-21T13:08:21;11.30;99.90
5802;DHT22;2927;49.366;8.530;2023-11-21T13:10:58;11.20;99.90
5802;DHT22;2927;49.366;8.530;2023-11-21T13:13:28;11.10;99.90
5802;DHT22;2927;49.366;8.530;2023-11-21T13:15:59;11.10;99.90
5802;DHT22;2927;49.366;8.530;2023-11-21T13:18:31;11.10;94.00
5802;DHT22;2927;49.366;8.530;2023-11-21T13:21:02;11.00;99.90
5802;DHT22;2927;49.366;8.530;2023-11-21T13:23:42;11.10;76.40
5802;DHT22;2927;49.366;8.530;2023-11-21T13:26:09;11.10;52.00
5802;DHT22;2927;49.366;8.530;2023-11-21T13:28:36;11.10;1.00
5802;DHT22;2927;49.366;8.530;2023-11-21T13:31:04;11.10;1.00
5802;DHT22;2927;49.366;8.530;2023-11-21T13:33:47;11.00;1.00
5802;DHT22;2927;49.366;8.530;2023-11-21T13:36:19;11.00;30.00
5802;DHT22;2927;49.366;8.530;2023-11-21T13:38:51;11.00;45.30
5802;DHT22;2927;49.366;8.530;2023-11-21T13:41:18;11.00;72.20
5802;DHT22;2927;49.366;8.530;2023-11-21T13:43:45;11.00;62.70
5802;DHT22;2927;49.366;8.530;2023-11-21T13:46:18;10.90;1.00
5802;DHT22;2927;49.366;8.530;2023-11-21T13:48:48;10.90;72.40
5802;DHT22;2927;49.366;8.530;2023-11-21T13:51:19;10.90;1.00
5802;DHT22;2927;49.366;8.530;2023-11-21T13:53:48;10.90;1.00
5802;DHT22;2927;49.366;8.530;2023-11-21T13:56:17;10.80;1.00
5802;DHT22;2927;49.366;8.530;2023-11-21T13:58:50;10.80;1.00
5802;DHT22;2927;49.366;8.530;2023-11-21T14:01:20;10.80;1.00
5802;DHT22;2927;49.366;8.530;2023-11-21T14:03:55;10.80;1.00
5802;DHT22;2927;49.366;8.530;2023-11-21T14:06:27;10.80;1.00
5802;DHT22;2927;49.366;8.530;2023-11-21T14:09:00;10.80;1.00
5802;DHT22;2927;49.366;8.530;2023-11-21T14:11:30;10.80;1.00
5802;DHT22;2927;49.366;8.530;2023-11-21T14:13:56;10.80;1.00
5802;DHT22;2927;49.366;8.530;2023-11-21T14:16:24;10.80;1.00
5802;DHT22;2927;49.366;8.530;2023-11-21T14:18:50;10.80;1.00
5802;DHT22;2927;49.366;8.530;2023-11-21T14:21:24;10.80;1.00
5802;DHT22;2927;49.366;8.530;2023-11-21T14:23:49;10.80;1.00
5802;DHT22;2927;49.366;8.530;2023-11-21T14:26:15;10.80;1.00
5802;DHT22;2927;49.366;8.530;2023-11-21T14:28:42;10.80;1.00
5802;DHT22;2927;49.366;8.530;2023-11-21T14:31:08;10.70;1.00
5802;DHT22;2927;49.366;8.530;2023-11-21T14:33:40;10.70;1.00
5802;DHT22;2927;49.366;8.530;2023-11-21T14:36:06;10.70;1.00
5802;DHT22;2927;49.366;8.530;2023-11-21T14:38:38;10.70;1.00
5802;DHT22;2927;49.366;8.530;2023-11-21T14:41:07;10.60;1.00
5802;DHT22;2927;49.366;8.530;2023-11-21T14:43:34;10.60;1.00
5802;DHT22;2927;49.366;8.530;2023-11-21T14:46:01;10.60;1.00
5802;DHT22;2927;49.366;8.530;2023-11-21T14:48:28;10.50;1.00
5802;DHT22;2927;49.366;8.530;2023-11-21T14:51:13;10.50;1.00
5802;DHT22;2927;49.366;8.530;2023-11-21T14:53:59;10.40;1.00
5802;DHT22;2927;49.366;8.530;2023-11-21T14:56:35;10.40;1.00
5802;DHT22;2927;49.366;8.530;2023-11-21T14:59:03;10.40;1.00
5802;DHT22;2927;49.366;8.530;2023-11-21T15:01:37;10.40;1.00
5802;DHT22;2927;49.366;8.530;2023-11-21T15:04:22;10.40;1.00
5802;DHT22;2927;49.366;8.530;2023-11-21T15:07:02;10.30;1.00
5802;DHT22;2927;49.366;8.530;2023-11-21T15:09:28;10.30;1.00
5802;DHT22;2927;49.366;8.530;2023-11-21T15:11:56;10.20;1.00
5802;DHT22;2927;49.366;8.530;2023-11-21T15:14:28;10.20;1.00
5802;DHT22;2927;49.366;8.530;2023-11-21T15:16:57;10.10;1.00
5802;DHT22;2927;49.366;8.530;2023-11-21T15:19:25;10.10;1.00
5802;DHT22;2927;49.366;8.530;2023-11-21T15:21:51;10.10;1.00
5802;DHT22;2927;49.366;8.530;2023-11-21T15:24:17;10.00;1.00
5802;DHT22;2927;49.366;8.530;2023-11-21T15:26:42;10.00;1.00
5802;DHT22;2927;49.366;8.530;2023-11-21T15:29:08;10.00;1.00
5802;DHT22;2927;49.366;8.530;2023-11-21T15:31:34;9.90;10.30
5802;DHT22;2927;49.366;8.530;2023-11-21T15:34:01;9.90;34.80
5802;DHT22;2927;49.366;8.530;2023-11-21T15:36:27;9.80;71.10
5802;DHT22;2927;49.366;8.530;2023-11-21T15:38:53;9.80;97.00
5802;DHT22;2927;49.366;8.530;2023-11-21T15:41:19;9.80;99.90
5802;DHT22;2927;49.366;8.530;2023-11-21T15:43:45;9.70;99.90
5802;DHT22;2927;49.366;8.530;2023-11-21T15:46:13;9.70;99.90
5802;DHT22;2927;49.366;8.530;2023-11-21T15:48:38;9.70;99.90
5802;DHT22;2927;49.366;8.530;2023-11-21T15:51:09;9.70;99.90
5802;DHT22;2927;49.366;8.530;2023-11-21T15:53:37;9.60;99.90
5802;DHT22;2927;49.366;8.530;2023-11-21T15:56:04;9.70;99.90
5802;DHT22;2927;49.366;8.530;2023-11-21T15:58:30;9.60;99.90
5802;DHT22;2927;49.366;8.530;2023-11-21T16:00:55;9.60;99.90
5802;DHT22;2927;49.366;8.530;2023-11-21T16:03:23;9.60;99.90
5802;DHT22;2927;49.366;8.530;2023-11-21T16:05:48;9.50;99.90
5802;DHT22;2927;49.366;8.530;2023-11-21T16:08:14;9.60;99.90
5802;DHT22;2927;49.366;8.530;2023-11-21T16:10:40;9.60;99.90
5802;DHT22;2927;49.366;8.530;2023-11-21T16:13:06;9.60;99.90
5802;DHT22;2927;49.366;8.530;2023-11-21T16:15:33;9.60;99.90
5802;DHT22;2927;49.366;8.530;2023-11-21T16:17:59;9.60;99.90
5802;DHT22;2927;49.366;8.530;2023-11-21T16:20:24;9.60;99.90
5802;DHT22;2927;49.366;8.530;2023-11-21T16:22:51;9.60;99.90
5802;DHT22;2927;49.366;8.530;2023-11-21T16:25:17;9.60;99.90